Time;durP1;ratioP1;P1;durP2;ratioP2;P2;SDS_P1;SDS_P2;PMS_P1;PMS_P2;Temp;Humidity;BMP_temperature;BMP_pressure;BME280_temperature;BME280_humidity;BME280_pressure;Samples;Min_cycle;Max_cycle;Signal;HPM_P1;HPM_P2
2023/05/07 00:03:47;;;;;;;;;;;;;;;14.29;68.38477;101714.2;;;;-74
2023/05/07 00:08:06;;;;;;;11.3;6.8;;;;;;;;;;;;;-68
2023/05/07 00:08:46;;;;;;;;;;;;;;;14.28;68.96387;101716;;;;-72
2023/05/07 00:13:46;;;;;;;;;;;;;;;14.29;69.37012;101717.1;;;;-70
2023/05/07 00:18:46;;;;;;;;;;;;;;;14.29;69.17969;101714.6;;;;-70
2023/05/07 00:23:46;;;;;;;;;;;;;;;14.29;71.74219;101716.5;;;;-71
2023/05/07 00:28:46;;;;;;;;;;;;;;;14.28;71.31543;101713.4;;;;-70
2023/05/07 00:33:46;;;;;;;;;;;;;;;14.27;70.54102;101712.1;;;;-69
2023/05/07 00:38:08;;;;;;;13.3;8;;;;;;;;;;;;;-68
2023/05/07 00:38:46;;;;;;;;;;;;;;;14.25;71.91602;101718.3;;;;-69
2023/05/07 00:43:47;;;;;;;;;;;;;;;14.22;72.24512;101718.8;;;;-68
2023/05/07 00:48:46;;;;;;;;;;;;;;;14.21;72.5459;101714.6;;;;-69
2023/05/07 00:53:47;;;;;;;;;;;;;;;14.17;73.62305;101713.1;;;;-70
2023/05/07 00:58:47;;;;;;;;;;;;;;;14.12;73.25781;101704.1;;;;-69
2023/05/07 01:03:47;;;;;;;;;;;;;;;14.1;73.4209;101700.4;;;;-69
2023/05/07 01:08:10;;;;;;;17.1;10.9;;;;;;;;;;;;;-70
2023/05/07 01:13:21;;;;;;;;;;;;;;;14.07;73.59473;101700.1;;;;-69
2023/05/07 01:18:21;;;;;;;;;;;;;;;14.04;73.90332;101697;;;;-70
2023/05/07 01:23:21;;;;;;;;;;;;;;;14.03;73.61133;101698.1;;;;-69
2023/05/07 01:28:21;;;;;;;;;;;;;;;14.04;74.62988;101696.8;;;;-68
2023/05/07 01:33:26;;;;;;;;;;;;;;;14.05;73.69238;101695.7;;;;-68
2023/05/07 01:38:12;;;;;;;22.5;12.8;;;;;;;;;;;;;-70
2023/05/07 01:38:24;;;;;;;;;;;;;;;14.05;74.76563;101693;;;;-69
2023/05/07 01:43:21;;;;;;;;;;;;;;;14.02;75.11816;101695.2;;;;-69
2023/05/07 01:48:21;;;;;;;;;;;;;;;14.03;74.66113;101697.8;;;;-69
2023/05/07 01:53:20;;;;;;;;;;;;;;;14.03;74.77344;101695.8;;;;-68
2023/05/07 01:58:20;;;;;;;;;;;;;;;14.01;74.66992;101695.8;;;;-69
2023/05/07 02:03:20;;;;;;;;;;;;;;;14;73.99609;101698.5;;;;-69
2023/05/07 02:08:15;;;;;;;20.6;12.5;;;;;;;;;;;;;-70
2023/05/07 02:08:24;;;;;;;;;;;;;;;14;74.19922;101695.7;;;;-72
2023/05/07 02:13:21;;;;;;;;;;;;;;;14.02;75.63184;101699.5;;;;-69
2023/05/07 02:18:20;;;;;;;;;;;;;;;14.02;74.68262;101700.3;;;;-69
2023/05/07 02:23:20;;;;;;;;;;;;;;;14.01;75.33008;101701;;;;-70
2023/05/07 02:28:20;;;;;;;;;;;;;;;14;75.65137;101693.7;;;;-69
2023/05/07 02:33:20;;;;;;;;;;;;;;;14;75.35938;101691.1;;;;-70
2023/05/07 02:38:16;;;;;;;18.3;11.2;;;;;;;;;;;;;-71
2023/05/07 02:38:26;;;;;;;;;;;;;;;13.98;75.09863;101687.5;;;;-69
2023/05/07 02:43:20;;;;;;;;;;;;;;;14;76.08691;101695.7;;;;-70
2023/05/07 02:48:20;;;;;;;;;;;;;;;13.99;75.62695;101697.4;;;;-69
2023/05/07 02:53:21;;;;;;;;;;;;;;;13.99;74.84473;101698.3;;;;-69
2023/05/07 02:58:20;;;;;;;;;;;;;;;13.99;75.50391;101697.3;;;;-68
2023/05/07 03:03:20;;;;;;;;;;;;;;;14;75.40332;101705.9;;;;-70
2023/05/07 03:08:19;;;;;;;16.6;9.4;;;;;;;;;;;;;-70
2023/05/07 03:08:29;;;;;;;;;;;;;;;13.99;75.73926;101703.3;;;;-69
2023/05/07 03:13:21;;;;;;;;;;;;;;;13.99;75.59375;101699.1;;;;-70
2023/05/07 03:18:20;;;;;;;;;;;;;;;13.98;74.89844;101697.2;;;;-69
2023/05/07 03:23:20;;;;;;;;;;;;;;;13.98;74.82129;101699.8;;;;-68
2023/05/07 03:28:20;;;;;;;;;;;;;;;13.97;75.46582;101692.2;;;;-70
2023/05/07 03:33:20;;;;;;;;;;;;;;;13.96;74.97461;101693.3;;;;-69
2023/05/07 03:38:21;;;;;;;;;;;;;;;13.97;74.20508;101691.6;;;;-69
2023/05/07 03:38:30;;;;;;;11.3;7;;;;;;;;;;;;;-69
2023/05/07 03:43:23;;;;;;;;;;;;;;;13.95;74.33496;101689.4;;;;-70
2023/05/07 03:48:23;;;;;;;;;;;;;;;13.91;75.40234;101685.3;;;;-70
2023/05/07 03:53:20;;;;;;;;;;;;;;;13.9;75.13086;101689.3;;;;-69
2023/05/07 03:58:20;;;;;;;;;;;;;;;13.88;76.15527;101696.7;;;;-69
2023/05/07 04:03:21;;;;;;;;;;;;;;;13.87;74.19824;101696.4;;;;-68
2023/05/07 04:08:20;;;;;;;;;;;;;;;13.86;75.21289;101693.8;;;;-70
2023/05/07 04:08:30;;;;;;;9.2;6.2;;;;;;;;;;;;;-70
2023/05/07 04:13:22;;;;;;;;;;;;;;;13.85;75.47949;101699.4;;;;-69
2023/05/07 04:18:21;;;;;;;;;;;;;;;13.83;74.89551;101696;;;;-68
2023/05/07 04:23:22;;;;;;;;;;;;;;;13.8;74.2207;101699;;;;-67
2023/05/07 04:28:20;;;;;;;;;;;;;;;13.81;74.33398;101704.3;;;;-69
2023/05/07 04:33:21;;;;;;;;;;;;;;;13.79;74.35352;101712.9;;;;-69
2023/05/07 04:38:20;;;;;;;;;;;;;;;13.8;74.7998;101718.3;;;;-71
2023/05/07 04:38:35;;;;;;;9.5;5.7;;;;;;;;;;;;;-71
2023/05/07 04:43:20;;;;;;;;;;;;;;;13.8;74.53223;101715.4;;;;-70
2023/05/07 04:48:20;;;;;;;;;;;;;;;13.82;74.58105;101713.7;;;;-69
2023/05/07 04:53:20;;;;;;;;;;;;;;;13.8;74.72168;101712.9;;;;-70
2023/05/07 04:58:20;;;;;;;;;;;;;;;13.82;74.9834;101720.8;;;;-70
2023/05/07 05:03:23;;;;;;;;;;;;;;;13.84;75.07617;101720;;;;-69
2023/05/07 05:08:20;;;;;;;;;;;;;;;13.87;75.4043;101725.8;;;;-69
2023/05/07 05:08:30;;;;;;;9.5;5.4;;;;;;;;;;;;;-69
2023/05/07 05:13:23;;;;;;;;;;;;;;;13.9;75.08496;101723.7;;;;-69
2023/05/07 05:18:20;;;;;;;;;;;;;;;13.94;75.1377;101721.8;;;;-69
2023/05/07 05:23:23;;;;;;;;;;;;;;;13.98;76.07031;101727.8;;;;-69
2023/05/07 05:28:20;;;;;;;;;;;;;;;14.03;76.75;101727.2;;;;-69
2023/05/07 05:33:20;;;;;;;;;;;;;;;14.09;75.77832;101733;;;;-69
2023/05/07 05:38:20;;;;;;;;;;;;;;;14.16;76.26953;101732.9;;;;-69
2023/05/07 05:38:30;;;;;;;8.7;5.6;;;;;;;;;;;;;-69
2023/05/07 05:43:20;;;;;;;;;;;;;;;14.26;74.67773;101743.7;;;;-71
2023/05/07 05:48:20;;;;;;;;;;;;;;;14.35;74.74902;101753.1;;;;-70
2023/05/07 05:53:20;;;;;;;;;;;;;;;14.41;75.18262;101761;;;;-69
2023/05/07 05:58:25;;;;;;;;;;;;;;;14.44;75.69238;101760.3;;;;-68
2023/05/07 06:03:20;;;;;;;;;;;;;;;14.46;75.44043;101761.3;;;;-68
2023/05/07 06:08:20;;;;;;;;;;;;;;;14.51;75.54785;101766.9;;;;-70
2023/05/07 06:08:34;;;;;;;9.7;6;;;;;;;;;;;;;-70
2023/05/07 06:13:20;;;;;;;;;;;;;;;14.57;75.71387;101770;;;;-69
2023/05/07 06:18:21;;;;;;;;;;;;;;;14.63;76.80957;101768.6;;;;-68
2023/05/07 06:23:20;;;;;;;;;;;;;;;14.7;76.82129;101773;;;;-71
2023/05/07 06:28:20;;;;;;;;;;;;;;;14.77;78.44531;101782.9;;;;-69
2023/05/07 06:33:20;;;;;;;;;;;;;;;14.87;79.84766;101793.2;;;;-68
2023/05/07 06:38:20;;;;;;;;;;;;;;;14.93;80.28418;101792;;;;-69
2023/05/07 06:38:33;;;;;;;13.7;9.1;;;;;;;;;;;;;-69
2023/05/07 06:43:20;;;;;;;;;;;;;;;14.96;80.2793;101790.1;;;;-69
2023/05/07 06:48:20;;;;;;;;;;;;;;;15.02;79.23633;101790.9;;;;-69
2023/05/07 06:53:20;;;;;;;;;;;;;;;15.07;79.81641;101788.5;;;;-67
2023/05/07 06:58:20;;;;;;;;;;;;;;;15.16;80.50391;101790.7;;;;-70
2023/05/07 07:03:20;;;;;;;;;;;;;;;15.31;81.41602;101796;;;;-70
2023/05/07 07:08:21;;;;;;;;;;;;;;;15.49;81.78516;101794.9;;;;-69
2023/05/07 07:08:35;;;;;;;15.1;10.3;;;;;;;;;;;;;-69
2023/05/07 07:13:20;;;;;;;;;;;;;;;15.72;80.90723;101796;;;;-69
2023/05/07 07:18:20;;;;;;;;;;;;;;;16.1;79.8916;101793.9;;;;-69
2023/05/07 07:23:23;;;;;;;;;;;;;;;16.42;79.9248;101794;;;;-70
2023/05/07 07:28:20;;;;;;;;;;;;;;;16.79;80.08203;101786.9;;;;-69
2023/05/07 07:33:22;;;;;;;;;;;;;;;17.25;78.81738;101773.8;;;;-68
2023/05/07 07:38:20;;;;;;;;;;;;;;;17.73;77.23535;101769.5;;;;-68
2023/05/07 07:38:38;;;;;;;16.1;10.9;;;;;;;;;;;;;-70
2023/05/07 07:43:20;;;;;;;;;;;;;;;17.99;75.80371;101774.7;;;;-70
2023/05/07 07:48:20;;;;;;;;;;;;;;;18.1;75.31836;101785.5;;;;-70
2023/05/07 07:53:20;;;;;;;;;;;;;;;18.21;75.01953;101792.8;;;;-69
2023/05/07 07:58:21;;;;;;;;;;;;;;;18.23;74.27832;101787.3;;;;-69
2023/05/07 08:03:20;;;;;;;;;;;;;;;18.03;76.15137;101786;;;;-71
2023/05/07 08:08:20;;;;;;;;;;;;;;;18.23;75.89063;101787.5;;;;-70
2023/05/07 08:13:21;;;;;;;;;;;;;;;18.58;75.28613;101786.7;;;;-72
2023/05/07 08:18:24;;;;;;;;;;;;;;;18.86;74.07813;101788.6;;;;-69
2023/05/07 08:23:20;;;;;;;;;;;;;;;19.01;73.42578;101788.3;;;;-72
2023/05/07 08:28:21;;;;;;;;;;;;;;;19.09;72.72656;101794;;;;-71
2023/05/07 08:33:20;;;;;;;;;;;;;;;19.53;72.32227;101797.6;;;;-70
2023/05/07 08:38:20;;;;;;;;;;;;;;;19.84;71.17285;101803.9;;;;-71
2023/05/07 08:38:47;;;;;;;11.2;8.2;;;;;;;;;;;;;-72
2023/05/07 08:43:22;;;;;;;;;;;;;;;19.98;70.65039;101812.3;;;;-70
2023/05/07 08:48:25;;;;;;;;;;;;;;;20.32;70.0459;101807.1;;;;-70
2023/05/07 08:58:26;;;;;;;;;;;;;;;20.37;69.95215;101811.5;;;;-71
2023/05/07 09:03:22;;;;;;;;;;;;;;;20.64;68.11914;101810.6;;;;-71
2023/05/07 09:08:20;;;;;;;;;;;;;;;20.6;67.73828;101821.9;;;;-70
2023/05/07 09:08:50;;;;;;;8.9;6.6;;;;;;;;;;;;;-69
2023/05/07 09:13:21;;;;;;;;;;;;;;;20.49;68.42676;101827.8;;;;-70
2023/05/07 09:18:20;;;;;;;;;;;;;;;20.39;67.87891;101829.3;;;;-71
2023/05/07 09:23:20;;;;;;;;;;;;;;;20.4;68.19629;101827.3;;;;-71
2023/05/07 09:28:20;;;;;;;;;;;;;;;20.55;67.90039;101824.3;;;;-70
2023/05/07 09:33:20;;;;;;;;;;;;;;;20.8;67.53027;101819.1;;;;-70
2023/05/07 09:38:24;;;;;;;;;;;;;;;21.01;66.81055;101817;;;;-71
2023/05/07 09:38:52;;;;;;;9.3;6.9;;;;;;;;;;;;;-70
2023/05/07 09:43:20;;;;;;;;;;;;;;;21.12;66.65625;101819.8;;;;-71
2023/05/07 09:48:22;;;;;;;;;;;;;;;21.41;65.87988;101821.2;;;;-71
2023/05/07 09:53:22;;;;;;;;;;;;;;;21.63;65.50293;101821.2;;;;-69
2023/05/07 09:58:22;;;;;;;;;;;;;;;21.43;62.56641;101820.8;;;;-70
2023/05/07 10:03:21;;;;;;;;;;;;;;;20.38;64.58008;101827.9;;;;-69
2023/05/07 10:08:20;;;;;;;;;;;;;;;21.45;64.30176;101823.2;;;;-67
2023/05/07 10:08:53;;;;;;;10.9;7.6;;;;;;;;;;;;;-69
2023/05/07 10:13:20;;;;;;;;;;;;;;;22.94;61.23242;101822.9;;;;-67
2023/05/07 10:18:22;;;;;;;;;;;;;;;23.47;60.97266;101830.6;;;;-68
2023/05/07 10:23:23;;;;;;;;;;;;;;;23.59;62.43262;101828.4;;;;-69
2023/05/07 10:28:22;;;;;;;;;;;;;;;23.56;59.21875;101831.7;;;;-68
2023/05/07 10:33:23;;;;;;;;;;;;;;;23.58;59.83008;101831.4;;;;-69
2023/05/07 10:38:20;;;;;;;;;;;;;;;23.8;59.96289;101832.5;;;;-68
2023/05/07 10:38:56;;;;;;;9.5;6.2;;;;;;;;;;;;;-68
2023/05/07 10:43:20;;;;;;;;;;;;;;;24.14;60.20117;101831.2;;;;-68
2023/05/07 10:48:20;;;;;;;;;;;;;;;24.39;60.04004;101832.1;;;;-68
2023/05/07 10:53:29;;;;;;;;;;;;;;;24.58;59.54883;101826.7;;;;-69
2023/05/07 10:58:33;;;;;;;;;;;;;;;24.58;58.68652;101824.9;;;;-68
2023/05/07 11:03:22;;;;;;;;;;;;;;;24.65;59.0166;101828.1;;;;-67
2023/05/07 11:08:20;;;;;;;;;;;;;;;24.64;60.38281;101830.7;;;;-69
2023/05/07 11:09:03;;;;;;;13.6;6;;;;;;;;;;;;;-69
2023/05/07 11:13:20;;;;;;;;;;;;;;;24.94;63.0791;101831.8;;;;-69
2023/05/07 11:18:21;;;;;;;;;;;;;;;25.28;63.875;101828.6;;;;-72
2023/05/07 11:23:34;;;;;;;;;;;;;;;25.61;63.44922;101824.7;;;;-69
2023/05/07 11:28:20;;;;;;;;;;;;;;;25.84;63.59668;101837.2;;;;-69
2023/05/07 11:33:20;;;;;;;;;;;;;;;26.22;62.30273;101833.2;;;;-69
2023/05/07 11:38:20;;;;;;;;;;;;;;;26.32;62.23633;101838.3;;;;-67
2023/05/07 11:39:04;;;;;;;8.8;5.5;;;;;;;;;;;;;-68
2023/05/07 11:43:20;;;;;;;;;;;;;;;26.24;62.44434;101835.2;;;;-69
2023/05/07 11:48:20;;;;;;;;;;;;;;;26.45;63.44141;101840.5;;;;-70
2023/05/07 11:53:20;;;;;;;;;;;;;;;26.47;62.01367;101838.5;;;;-70
2023/05/07 11:58:25;;;;;;;;;;;;;;;26.51;62.03223;101839.8;;;;-69
2023/05/07 12:03:20;;;;;;;;;;;;;;;26.76;63.02344;101837.9;;;;-70
2023/05/07 12:08:22;;;;;;;;;;;;;;;26.98;60.21289;101837.9;;;;-69
2023/05/07 12:09:11;;;;;;;7.1;4.8;;;;;;;;;;;;;-69
2023/05/07 12:13:26;;;;;;;;;;;;;;;26.92;60.77148;101838.6;;;;-70
2023/05/07 12:18:23;;;;;;;;;;;;;;;27.05;61.57324;101849.6;;;;-70
2023/05/07 12:23:20;;;;;;;;;;;;;;;27.21;61.57129;101843.4;;;;-70
2023/05/07 12:28:21;;;;;;;;;;;;;;;27.28;61.53418;101838.3;;;;-70
2023/05/07 12:33:21;;;;;;;;;;;;;;;27.27;60.91016;101841.5;;;;-69
2023/05/07 12:38:21;;;;;;;;;;;;;;;26.94;61.02832;101841.5;;;;-71
2023/05/07 12:39:13;;;;;;;7.1;4.5;;;;;;;;;;;;;-70
2023/05/07 12:43:27;;;;;;;;;;;;;;;26.64;62.0957;101828;;;;-69
2023/05/07 12:48:23;;;;;;;;;;;;;;;26.31;62.5332;101828;;;;-70
2023/05/07 12:53:21;;;;;;;;;;;;;;;25.97;61.8877;101837.4;;;;-71
2023/05/07 12:58:24;;;;;;;;;;;;;;;25.68;62.73438;101859.5;;;;-70
2023/05/07 13:03:24;;;;;;;;;;;;;;;25.42;63.19238;101857;;;;-70
2023/05/07 13:08:26;;;;;;;;;;;;;;;25.18;63.30859;101853.7;;;;-69
2023/05/07 13:09:18;;;;;;;7.7;5.5;;;;;;;;;;;;;-69
2023/05/07 13:13:20;;;;;;;;;;;;;;;24.93;63.33203;101881.1;;;;-70
2023/05/07 13:18:20;;;;;;;;;;;;;;;24.67;63.52441;101892.1;;;;-68
2023/05/07 13:23:20;;;;;;;;;;;;;;;24.38;64.07031;101888.4;;;;-69
2023/05/07 13:28:20;;;;;;;;;;;;;;;24.12;64.14746;101894.8;;;;-68
2023/05/07 13:33:20;;;;;;;;;;;;;;;23.89;64.91504;101903.3;;;;-70
2023/05/07 13:38:20;;;;;;;;;;;;;;;23.63;65.06152;101888.7;;;;-70
2023/05/07 13:39:23;;;;;;;8.9;6.5;;;;;;;;;;;;;-69
2023/05/07 13:43:20;;;;;;;;;;;;;;;23.38;65.4502;101899.7;;;;-70
2023/05/07 13:48:20;;;;;;;;;;;;;;;23.15;65.51953;101903.6;;;;-68
2023/05/07 13:53:20;;;;;;;;;;;;;;;22.94;65.83105;101892.7;;;;-71
2023/05/07 13:58:20;;;;;;;;;;;;;;;22.55;67.26953;101885;;;;-70
2023/05/07 14:03:20;;;;;;;;;;;;;;;22.5;66.23438;101892.3;;;;-73
2023/05/07 14:08:25;;;;;;;;;;;;;;;22.32;66.45898;101892;;;;-74
2023/05/07 14:09:30;;;;;;;14.9;9.5;;;;;;;;;;;;;-73
2023/05/07 14:13:23;;;;;;;;;;;;;;;22.2;66.11035;101900.9;;;;-75
2023/05/07 14:18:20;;;;;;;;;;;;;;;22.1;65.78809;101917;;;;-70
2023/05/07 14:23:26;;;;;;;;;;;;;;;22.01;65.94531;101924.1;;;;-72
2023/05/07 14:28:22;;;;;;;;;;;;;;;21.89;65.96191;101932.3;;;;-71
2023/05/07 14:33:21;;;;;;;;;;;;;;;21.78;65.79688;101945.8;;;;-71
2023/05/07 14:38:20;;;;;;;;;;;;;;;21.62;65.96777;101940.5;;;;-71
2023/05/07 14:39:31;;;;;;;14.4;9.7;;;;;;;;;;;;;-71
2023/05/07 14:43:20;;;;;;;;;;;;;;;21.48;65.83203;101933.6;;;;-70
2023/05/07 14:48:20;;;;;;;;;;;;;;;21.34;66.08594;101932.2;;;;-71
2023/05/07 14:53:25;;;;;;;;;;;;;;;21.21;66.06836;101929.1;;;;-74
2023/05/07 14:58:20;;;;;;;;;;;;;;;21.12;66.08789;101928.5;;;;-71
2023/05/07 15:03:21;;;;;;;;;;;;;;;21.04;65.12012;101934.8;;;;-71
2023/05/07 15:08:20;;;;;;;;;;;;;;;20.99;65.06738;101937.4;;;;-71
2023/05/07 15:09:35;;;;;;;14.1;9.2;;;;;;;;;;;;;-71
2023/05/07 15:13:20;;;;;;;;;;;;;;;20.97;65.12109;101944;;;;-71
2023/05/07 15:18:20;;;;;;;;;;;;;;;20.96;64.50488;101947.3;;;;-70
2023/05/07 15:23:20;;;;;;;;;;;;;;;20.98;64.78125;101953.9;;;;-69
2023/05/07 15:28:20;;;;;;;;;;;;;;;21.03;65.02637;101959.1;;;;-70
2023/05/07 15:33:20;;;;;;;;;;;;;;;21.03;65.52734;101957.9;;;;-71
2023/05/07 15:38:20;;;;;;;;;;;;;;;20.99;65.80664;101958.6;;;;-70
2023/05/07 15:39:38;;;;;;;14.5;9.5;;;;;;;;;;;;;-70
2023/05/07 15:43:20;;;;;;;;;;;;;;;20.9;65.09961;101960.5;;;;-69
2023/05/07 15:48:20;;;;;;;;;;;;;;;20.79;65.53809;101957.4;;;;-70
2023/05/07 15:53:20;;;;;;;;;;;;;;;20.68;64.72656;101954;;;;-70
2023/05/07 15:58:21;;;;;;;;;;;;;;;20.58;64.47168;101956;;;;-69
2023/05/07 16:03:21;;;;;;;;;;;;;;;20.51;64.44922;101961;;;;-71
2023/05/07 16:08:20;;;;;;;;;;;;;;;20.45;64.63477;101961;;;;-71
2023/05/07 16:09:44;;;;;;;11;7.9;;;;;;;;;;;;;-70
2023/05/07 16:13:20;;;;;;;;;;;;;;;20.39;64.59277;101960;;;;-70
2023/05/07 16:18:20;;;;;;;;;;;;;;;20.35;64.41602;101956.1;;;;-70
2023/05/07 16:23:20;;;;;;;;;;;;;;;20.3;64.63672;101951.7;;;;-70
2023/05/07 16:28:20;;;;;;;;;;;;;;;20.26;64.42578;101952.6;;;;-69
2023/05/07 16:33:20;;;;;;;;;;;;;;;20.22;64.59082;101953.3;;;;-71
2023/05/07 16:38:23;;;;;;;;;;;;;;;20.18;64.87012;101957.2;;;;-70
2023/05/07 16:39:47;;;;;;;12;7.6;;;;;;;;;;;;;-70
2023/05/07 16:43:20;;;;;;;;;;;;;;;20.16;64.70801;101954.7;;;;-69
2023/05/07 16:48:22;;;;;;;;;;;;;;;20.13;64.94141;101960.6;;;;-70
2023/05/07 16:53:22;;;;;;;;;;;;;;;20.08;65.09375;101958.2;;;;-70
2023/05/07 16:58:20;;;;;;;;;;;;;;;20.01;65.17383;101956.3;;;;-72
2023/05/07 17:03:24;;;;;;;;;;;;;;;19.96;64.99707;101955.1;;;;-70
2023/05/07 17:08:21;;;;;;;;;;;;;;;19.95;65.55078;101953.6;;;;-69
2023/05/07 17:09:50;;;;;;;11.3;7;;;;;;;;;;;;;-73
2023/05/07 17:13:20;;;;;;;;;;;;;;;19.94;65.36816;101955;;;;-70
2023/05/07 17:18:20;;;;;;;;;;;;;;;19.94;65.42578;101955.5;;;;-70
2023/05/07 17:23:20;;;;;;;;;;;;;;;19.91;65.6377;101965.4;;;;-69
2023/05/07 17:28:20;;;;;;;;;;;;;;;19.88;65.51855;101969.4;;;;-69
2023/05/07 17:33:20;;;;;;;;;;;;;;;19.84;65.64941;101972.8;;;;-69
2023/05/07 17:38:20;;;;;;;;;;;;;;;19.77;65.76367;101970.6;;;;-69
2023/05/07 17:39:59;;;;;;;8.7;5.7;;;;;;;;;;;;;-70
2023/05/07 17:43:22;;;;;;;;;;;;;;;19.75;65.56641;101976.3;;;;-70
2023/05/07 17:48:20;;;;;;;;;;;;;;;19.71;65.80957;101971.5;;;;-70
2023/05/07 17:53:23;;;;;;;;;;;;;;;19.63;66.26367;101970.5;;;;-70
2023/05/07 17:58:21;;;;;;;;;;;;;;;19.53;66.66895;101978.7;;;;-70
2023/05/07 18:03:28;;;;;;;;;;;;;;;19.41;66.7207;101984.2;;;;-70
2023/05/07 18:08:23;;;;;;;;;;;;;;;19.28;66.54004;101988.6;;;;-71
2023/05/07 18:09:55;;;;;;;6.7;4.5;;;;;;;;;;;;;-69
2023/05/07 18:13:20;;;;;;;;;;;;;;;19.13;67.27734;101995.6;;;;-70
2023/05/07 18:18:20;;;;;;;;;;;;;;;18.97;67.58203;101997.9;;;;-70
2023/05/07 18:23:26;;;;;;;;;;;;;;;18.83;67.67285;102005.9;;;;-70
2023/05/07 18:28:21;;;;;;;;;;;;;;;18.7;68.1748;102015.8;;;;-69
2023/05/07 18:33:21;;;;;;;;;;;;;;;18.58;68.15625;102021.5;;;;-71
2023/05/07 18:38:23;;;;;;;;;;;;;;;18.47;67.83398;102022.7;;;;-70
2023/05/07 18:40:01;;;;;;;6.4;4;;;;;;;;;;;;;-70
2023/05/07 18:43:22;;;;;;;;;;;;;;;18.37;67.85449;102027;;;;-71
2023/05/07 18:48:20;;;;;;;;;;;;;;;18.31;68.04688;102029.6;;;;-69
2023/05/07 18:53:21;;;;;;;;;;;;;;;18.22;68.19043;102034.6;;;;-71
2023/05/07 18:58:20;;;;;;;;;;;;;;;18.13;67.87305;102033.7;;;;-71
2023/05/07 19:03:23;;;;;;;;;;;;;;;18.05;68.87793;102039.8;;;;-70
2023/05/07 19:08:20;;;;;;;;;;;;;;;17.95;67.77734;102035.1;;;;-70
2023/05/07 19:10:04;;;;;;;6.2;3.4;;;;;;;;;;;;;-70
2023/05/07 19:13:20;;;;;;;;;;;;;;;17.87;68.65723;102035.7;;;;-70
2023/05/07 19:18:20;;;;;;;;;;;;;;;17.75;68.07422;102032.2;;;;-70
2023/05/07 19:23:20;;;;;;;;;;;;;;;17.66;68.36523;102042.3;;;;-69
2023/05/07 19:28:25;;;;;;;;;;;;;;;17.55;68.77734;102054.9;;;;-71
2023/05/07 19:33:20;;;;;;;;;;;;;;;17.43;68.70215;102054.4;;;;-70
2023/05/07 19:38:20;;;;;;;;;;;;;;;17.31;68.88574;102064.5;;;;-70
2023/05/07 19:40:11;;;;;;;5;2.7;;;;;;;;;;;;;-70
2023/05/07 19:43:36;;;;;;;;;;;;;;;17.2;69.08301;102068.6;;;;-69
2023/05/07 19:48:23;;;;;;;;;;;;;;;17.08;69.22363;102075.8;;;;-69
2023/05/07 19:53:39;;;;;;;;;;;;;;;16.98;69.12891;102078.3;;;;-73
2023/05/07 19:58:20;;;;;;;;;;;;;;;16.87;69.31348;102079.4;;;;-70
2023/05/07 20:03:20;;;;;;;;;;;;;;;16.77;69.48926;102081;;;;-71
2023/05/07 20:08:20;;;;;;;;;;;;;;;16.67;69.73145;102089;;;;-71
2023/05/07 20:10:10;;;;;;;5.1;2.4;;;;;;;;;;;;;-70
2023/05/07 20:13:20;;;;;;;;;;;;;;;16.58;69.43652;102098.1;;;;-69
2023/05/07 20:18:20;;;;;;;;;;;;;;;16.49;69.98535;102106.6;;;;-70
2023/05/07 20:23:20;;;;;;;;;;;;;;;16.39;69.75586;102104.8;;;;-70
2023/05/07 20:28:21;;;;;;;;;;;;;;;16.29;70.30176;102108.4;;;;-70
2023/05/07 20:33:21;;;;;;;;;;;;;;;16.21;70.3125;102110.6;;;;-71
2023/05/07 20:38:20;;;;;;;;;;;;;;;16.15;70.54004;102110.1;;;;-70
2023/05/07 20:40:13;;;;;;;3.5;2.4;;;;;;;;;;;;;-73
2023/05/07 20:43:24;;;;;;;;;;;;;;;16.06;70.54688;102111.9;;;;-70
2023/05/07 20:48:21;;;;;;;;;;;;;;;15.94;70.76367;102118.8;;;;-70
2023/05/07 20:53:20;;;;;;;;;;;;;;;15.86;70.85156;102121.4;;;;-69
2023/05/07 20:58:23;;;;;;;;;;;;;;;15.75;70.99023;102122.8;;;;-69
2023/05/07 21:03:20;;;;;;;;;;;;;;;15.66;71.19141;102125.8;;;;-69
2023/05/07 21:08:23;;;;;;;;;;;;;;;15.57;71.1416;102128.2;;;;-70
2023/05/07 21:10:13;;;;;;;3.5;2.3;;;;;;;;;;;;;-71
2023/05/07 21:13:20;;;;;;;;;;;;;;;15.46;71.40625;102144.5;;;;-73
2023/05/07 21:18:20;;;;;;;;;;;;;;;15.39;71.26953;102151.3;;;;-72
2023/05/07 21:23:22;;;;;;;;;;;;;;;15.28;71.86914;102150.8;;;;-71
2023/05/07 21:28:20;;;;;;;;;;;;;;;15.14;71.64453;102148.5;;;;-70
2023/05/07 21:33:22;;;;;;;;;;;;;;;15.02;71.78223;102148.7;;;;-69
2023/05/07 21:38:20;;;;;;;;;;;;;;;14.94;71.87012;102146.8;;;;-72
2023/05/07 21:40:19;;;;;;;4.3;2.6;;;;;;;;;;;;;-71
2023/05/07 21:43:20;;;;;;;;;;;;;;;14.9;71.91895;102150.7;;;;-70
2023/05/07 21:48:22;;;;;;;;;;;;;;;14.81;72.30859;102144;;;;-70
2023/05/07 21:53:21;;;;;;;;;;;;;;;14.82;72.11816;102145.3;;;;-69
2023/05/07 21:58:20;;;;;;;;;;;;;;;14.74;72.39746;102147.2;;;;-71
2023/05/07 22:03:20;;;;;;;;;;;;;;;14.7;72.25684;102148.1;;;;-70
2023/05/07 22:08:20;;;;;;;;;;;;;;;14.67;72.17285;102150.9;;;;-71
2023/05/07 22:10:21;;;;;;;5.1;2.9;;;;;;;;;;;;;-70
2023/05/07 22:13:20;;;;;;;;;;;;;;;14.6;72.83301;102157.5;;;;-71
2023/05/07 22:18:20;;;;;;;;;;;;;;;14.58;72.69531;102160.2;;;;-69
2023/05/07 22:23:20;;;;;;;;;;;;;;;14.54;72.99121;102160.2;;;;-72
2023/05/07 22:28:23;;;;;;;;;;;;;;;14.52;72.77539;102158.5;;;;-69
2023/05/07 22:33:31;;;;;;;;;;;;;;;14.46;72.88867;102159.3;;;;-69
2023/05/07 22:38:26;;;;;;;;;;;;;;;14.44;73.1543;102157;;;;-69
2023/05/07 22:40:19;;;;;;;5.1;3;;;;;;;;;;;;;-71
2023/05/07 22:43:21;;;;;;;;;;;;;;;14.38;73.53613;102159.6;;;;-70
2023/05/07 22:48:20;;;;;;;;;;;;;;;14.34;72.82422;102151.4;;;;-70
2023/05/07 22:53:20;;;;;;;;;;;;;;;14.3;72.76074;102150.3;;;;-69
2023/05/07 22:58:22;;;;;;;;;;;;;;;14.26;72.74316;102156;;;;-71
2023/05/07 23:03:20;;;;;;;;;;;;;;;14.22;72.50293;102157.3;;;;-70
2023/05/07 23:08:22;;;;;;;;;;;;;;;14.16;72.53711;102157.3;;;;-72
2023/05/07 23:10:26;;;;;;;4.2;2.6;;;;;;;;;;;;;-70
2023/05/07 23:13:22;;;;;;;;;;;;;;;14.12;72.39648;102159.1;;;;-70
2023/05/07 23:18:20;;;;;;;;;;;;;;;14.06;72.70996;102166.7;;;;-70
2023/05/07 23:23:20;;;;;;;;;;;;;;;13.96;72.82813;102161.5;;;;-70
2023/05/07 23:28:20;;;;;;;;;;;;;;;13.91;72.6748;102159.9;;;;-71
2023/05/07 23:33:25;;;;;;;;;;;;;;;13.84;73.02246;102171.4;;;;-70
2023/05/07 23:38:22;;;;;;;;;;;;;;;13.75;72.54785;102174.1;;;;-72
2023/05/07 23:40:22;;;;;;;4.2;2.6;;;;;;;;;;;;;-70
2023/05/07 23:43:25;;;;;;;;;;;;;;;13.66;73.08105;102169.3;;;;-70
2023/05/07 23:48:23;;;;;;;;;;;;;;;13.58;73.22363;102171.6;;;;-69
2023/05/07 23:53:20;;;;;;;;;;;;;;;13.5;73.13184;102162.6;;;;-71
